Time;durP1;ratioP1;P1;durP2;ratioP2;P2;SDS_P1;SDS_P2;PMS_P1;PMS_P2;Temp;Humidity;BMP_temperature;BMP_pressure;BME280_temperature;BME280_humidity;BME280_pressure;Samples;Min_cycle;Max_cycle;Signal;HPM_P1;HPM_P2
2021/07/20 00:00:41;;;;;;;1.95;1.20;;;;;;;;;;5072380;28;20072;-70
2021/07/20 00:03:10;;;;;;;4.68;1.38;;;;;;;;;;5072165;28;20035;-70
2021/07/20 00:05:38;;;;;;;2.38;1.05;;;;;;;;;;5058557;28;20377;-71
2021/07/20 00:08:05;;;;;;;4.07;1.10;;;;;;;;;;5066068;28;20097;-70
2021/07/20 00:10:39;;;;;;;4.90;1.20;;;;;;;;;;5071979;28;20036;-70
2021/07/20 00:13:06;;;;;;;5.38;1.30;;;;;;;;;;5072707;28;20372;-70
2021/07/20 00:15:33;;;;;;;3.53;1.30;;;;;;;;;;5059272;28;20032;-70
2021/07/20 00:18:04;;;;;;;3.03;1.40;;;;;;;;;;5080662;28;20020;-70
2021/07/20 00:20:30;;;;;;;3.13;1.30;;;;;;;;;;5072112;28;20048;-70
2021/07/20 00:22:55;;;;;;;7.60;1.00;;;;;;;;;;5072726;28;20020;-70
2021/07/20 00:25:21;;;;;;;3.35;1.17;;;;;;;;;;5056917;28;20025;-70
2021/07/20 00:27:47;;;;;;;2.65;1.52;;;;;;;;;;5060995;28;20451;-70
2021/07/20 00:30:15;;;;;;;4.28;1.33;;;;;;;;;;5072354;28;20048;-70
2021/07/20 00:32:40;;;;;;;1.33;1.10;;;;;;;;;;5071752;28;20036;-70
2021/07/20 00:35:08;;;;;;;2.88;1.02;;;;;;;;;;5059369;28;20036;-70
2021/07/20 00:37:35;;;;;;;4.00;1.10;;;;;;;;;;5062831;28;20082;-70
2021/07/20 00:40:00;;;;;;;2.05;0.80;;;;;;;;;;5089964;28;20036;-70
2021/07/20 00:42:25;;;;;;;2.42;1.25;;;;;;;;;;5066126;28;20024;-70
2021/07/20 00:44:51;;;;;;;3.78;1.15;;;;;;;;;;5062285;28;20504;-70
2021/07/20 00:47:17;;;;;;;2.22;1.00;;;;;;;;;;5052908;28;20120;-70
2021/07/20 00:49:43;;;;;;;1.50;1.20;;;;;;;;;;5049994;28;20507;-71
2021/07/20 00:52:09;;;;;;;2.05;1.27;;;;;;;;;;5052484;28;20051;-70
2021/07/20 00:54:36;;;;;;;2.85;1.15;;;;;;;;;;5044045;28;20029;-70
2021/07/20 00:57:03;;;;;;;1.42;1.25;;;;;;;;;;5033451;28;20033;-70
2021/07/20 00:59:30;;;;;;;2.55;1.20;;;;;;;;;;5050457;28;20029;-70
2021/07/20 01:01:55;;;;;;;1.40;1.10;;;;;;;;;;5050009;28;20361;-70
2021/07/20 01:04:22;;;;;;;2.15;0.90;;;;;;;;;;5050362;28;20171;-70
2021/07/20 01:06:49;;;;;;;1.90;1.00;;;;;;;;;;5035952;28;20064;-70
2021/07/20 01:09:16;;;;;;;2.08;1.10;;;;;;;;;;5044656;28;20110;-70
2021/07/20 01:11:42;;;;;;;2.40;1.02;;;;;;;;;;5048353;28;20036;-70
2021/07/20 01:14:08;;;;;;;1.60;1.10;;;;;;;;;;5054623;28;20030;-70
2021/07/20 01:16:36;;;;;;;2.65;1.10;;;;;;;;;;5065839;28;20111;-70
2021/07/20 01:19:06;;;;;;;2.38;1.10;;;;;;;;;;5059563;28;20035;-69
2021/07/20 01:21:37;;;;;;;4.05;1.17;;;;;;;;;;5055968;28;20491;-69
2021/07/20 01:24:11;;;;;;;2.58;1.20;;;;;;;;;;5054604;28;20393;-70
2021/07/20 01:26:36;;;;;;;1.98;1.13;;;;;;;;;;5048382;28;20021;-70
2021/07/20 01:29:05;;;;;;;2.55;1.10;;;;;;;;;;5037483;28;20037;-70
2021/07/20 01:31:35;;;;;;;3.33;1.50;;;;;;;;;;5055356;28;20697;-70
2021/07/20 01:34:03;;;;;;;2.47;1.20;;;;;;;;;;5054975;28;20028;-70
2021/07/20 01:36:31;;;;;;;2.47;1.30;;;;;;;;;;5055271;28;20108;-70
2021/07/20 01:38:59;;;;;;;1.88;1.10;;;;;;;;;;5059895;28;20580;-70
2021/07/20 01:41:25;;;;;;;2.78;1.25;;;;;;;;;;5055481;28;20100;-70
2021/07/20 01:43:59;;;;;;;2.67;1.00;;;;;;;;;;5054879;28;20044;-70
2021/07/20 01:46:27;;;;;;;1.48;1.20;;;;;;;;;;5048265;28;20473;-70
2021/07/20 01:48:55;;;;;;;2.08;1.30;;;;;;;;;;5042384;28;20425;-70
2021/07/20 01:51:23;;;;;;;1.45;1.05;;;;;;;;;;5062711;28;20033;-70
2021/07/20 01:53:50;;;;;;;1.27;1.00;;;;;;;;;;5073745;28;20028;-69
2021/07/20 01:56:17;;;;;;;1.45;1.30;;;;;;;;;;5063130;28;20060;-69
2021/07/20 01:58:43;;;;;;;3.17;1.15;;;;;;;;;;5074457;28;20036;-70
2021/07/20 02:01:23;;;;;;;3.63;1.20;;;;;;;;;;5074741;28;20468;-70
2021/07/20 02:09:16;;;;;;;1.15;0.95;;;;;;;;;;5075763;28;20089;-70
2021/07/20 02:11:43;;;;;;;3.67;1.15;;;;;;;;;;5075276;28;20028;-69
2021/07/20 02:14:12;;;;;;;1.52;1.10;;;;;;;;;;5067570;28;20032;-70
2021/07/20 02:16:46;;;;;;;1.73;1.33;;;;;;;;;;5065289;28;20491;-69
2021/07/20 02:19:17;;;;;;;2.17;1.17;;;;;;;;;;5062053;28;20028;-69
2021/07/20 02:21:50;;;;;;;1.98;1.10;;;;;;;;;;5075106;28;20032;-69
2021/07/20 02:24:20;;;;;;;2.08;1.10;;;;;;;;;;5064265;28;20033;-70
2021/07/20 02:26:46;;;;;;;1.60;1.20;;;;;;;;;;5065770;28;20032;-69
2021/07/20 02:29:14;;;;;;;2.08;1.20;;;;;;;;;;5074153;28;20023;-69
2021/07/20 02:31:41;;;;;;;2.72;1.23;;;;;;;;;;5074093;28;20021;-69
2021/07/20 02:34:08;;;;;;;2.40;1.50;;;;;;;;;;5073596;28;20483;-70
2021/07/20 02:36:37;;;;;;;3.85;1.40;;;;;;;;;;5063146;28;20425;-69
2021/07/20 02:39:05;;;;;;;1.35;1.10;;;;;;;;;;5079219;28;20028;-71
2021/07/20 02:41:31;;;;;;;3.90;1.30;;;;;;;;;;5054509;28;20436;-70
2021/07/20 02:43:58;;;;;;;2.22;1.35;;;;;;;;;;5060912;28;20059;-70
2021/07/20 02:46:23;;;;;;;2.53;1.40;;;;;;;;;;5072717;28;20029;-70
2021/07/20 02:48:51;;;;;;;2.72;1.40;;;;;;;;;;5073504;28;20102;-69
2021/07/20 02:51:18;;;;;;;1.35;1.00;;;;;;;;;;5074075;28;20464;-69
2021/07/20 02:53:47;;;;;;;1.55;1.17;;;;;;;;;;5069133;28;20021;-69
2021/07/20 02:56:14;;;;;;;5.00;1.33;;;;;;;;;;5060713;28;20029;-69
2021/07/20 02:58:44;;;;;;;6.43;1.40;;;;;;;;;;5074212;28;20480;-69
2021/07/20 03:01:11;;;;;;;1.52;1.10;;;;;;;;;;5074234;28;20036;-70
2021/07/20 03:03:36;;;;;;;1.45;1.20;;;;;;;;;;5070271;28;20031;-69
2021/07/20 03:06:05;;;;;;;1.58;1.10;;;;;;;;;;5062371;28;20028;-69
2021/07/20 03:08:34;;;;;;;2.42;0.98;;;;;;;;;;5073927;28;20044;-69
2021/07/20 03:11:03;;;;;;;1.40;1.10;;;;;;;;;;5074052;28;20028;-69
2021/07/20 03:13:30;;;;;;;1.55;1.10;;;;;;;;;;5073449;28;20043;-69
2021/07/20 03:15:57;;;;;;;1.58;1.20;;;;;;;;;;5076118;28;20031;-69
2021/07/20 03:18:27;;;;;;;2.05;1.00;;;;;;;;;;5094197;28;20036;-70
2021/07/20 03:20:54;;;;;;;1.92;1.25;;;;;;;;;;5073981;28;20074;-70
2021/07/20 03:23:20;;;;;;;2.58;1.27;;;;;;;;;;5072412;28;20028;-70
2021/07/20 03:25:47;;;;;;;3.80;1.10;;;;;;;;;;5059719;28;20461;-70
2021/07/20 03:28:13;;;;;;;2.65;1.15;;;;;;;;;;5072375;28;20085;-69
2021/07/20 03:30:39;;;;;;;2.58;1.25;;;;;;;;;;5072464;28;20032;-70
2021/07/20 03:33:06;;;;;;;1.48;1.20;;;;;;;;;;5071676;28;20240;-70
2021/07/20 03:35:32;;;;;;;3.03;1.48;;;;;;;;;;5071708;28;20499;-70
2021/07/20 03:37:59;;;;;;;3.08;1.50;;;;;;;;;;5077127;28;20529;-70
2021/07/20 03:40:26;;;;;;;2.15;1.63;;;;;;;;;;5093449;28;20028;-69
2021/07/20 03:42:54;;;;;;;3.47;1.20;;;;;;;;;;5077335;28;20104;-70
2021/07/20 03:45:20;;;;;;;2.53;1.27;;;;;;;;;;5071496;28;20028;-70
2021/07/20 03:47:48;;;;;;;1.95;1.30;;;;;;;;;;5072374;28;20051;-70
2021/07/20 03:50:16;;;;;;;2.75;1.25;;;;;;;;;;5072214;28;20182;-70
2021/07/20 03:52:42;;;;;;;2.05;1.30;;;;;;;;;;5072394;28;20031;-70
2021/07/20 03:55:09;;;;;;;3.33;1.20;;;;;;;;;;5070908;28;20036;-71
2021/07/20 03:57:35;;;;;;;2.33;1.50;;;;;;;;;;5072796;28;20385;-70
2021/07/20 04:00:06;;;;;;;3.55;1.48;;;;;;;;;;5060624;28;20029;-71
2021/07/20 04:02:44;;;;;;;2.55;1.10;;;;;;;;;;5052874;28;20021;-70
2021/07/20 04:05:12;;;;;;;1.20;1.00;;;;;;;;;;5067953;28;20099;-70
2021/07/20 04:07:39;;;;;;;1.67;1.40;;;;;;;;;;5052400;28;20027;-71
2021/07/20 04:10:05;;;;;;;1.45;1.10;;;;;;;;;;5052757;28;20029;-70
2021/07/20 04:12:33;;;;;;;2.40;1.30;;;;;;;;;;5052833;28;20043;-69
2021/07/20 04:15:00;;;;;;;4.70;1.45;;;;;;;;;;5065939;28;20040;-70
2021/07/20 04:17:26;;;;;;;3.80;1.17;;;;;;;;;;5089585;28;20417;-70
2021/07/20 04:19:52;;;;;;;2.47;1.30;;;;;;;;;;5092151;28;20404;-69
2021/07/20 04:22:18;;;;;;;1.90;1.17;;;;;;;;;;5081814;28;20100;-69
2021/07/20 04:24:45;;;;;;;4.32;1.40;;;;;;;;;;5060492;28;20415;-70
2021/07/20 04:27:12;;;;;;;4.50;1.48;;;;;;;;;;5071296;28;20025;-69
2021/07/20 04:29:37;;;;;;;4.47;1.50;;;;;;;;;;5073098;28;20384;-69
2021/07/20 04:32:06;;;;;;;2.88;1.23;;;;;;;;;;5071316;28;20059;-70
2021/07/20 04:34:33;;;;;;;3.13;1.30;;;;;;;;;;5056101;28;20476;-70
2021/07/20 04:37:01;;;;;;;2.10;1.50;;;;;;;;;;5052207;28;20040;-70
2021/07/20 04:39:28;;;;;;;2.28;1.40;;;;;;;;;;5079918;28;20048;-70
2021/07/20 04:41:54;;;;;;;3.60;1.60;;;;;;;;;;5068949;28;20378;-70
2021/07/20 04:44:20;;;;;;;2.45;1.73;;;;;;;;;;5072738;28;20020;-70
2021/07/20 04:46:47;;;;;;;2.42;1.60;;;;;;;;;;5071309;28;20376;-70
2021/07/20 04:49:13;;;;;;;1.95;1.40;;;;;;;;;;5071433;28;20538;-70
2021/07/20 04:51:41;;;;;;;3.47;1.58;;;;;;;;;;5070766;28;20361;-70
2021/07/20 04:54:08;;;;;;;4.10;1.70;;;;;;;;;;5071714;28;20094;-69
2021/07/20 04:56:34;;;;;;;2.78;1.70;;;;;;;;;;5068611;28;20038;-70
2021/07/20 04:59:00;;;;;;;2.00;1.48;;;;;;;;;;5068962;28;20032;-69
2021/07/20 05:01:25;;;;;;;2.30;1.45;;;;;;;;;;5065699;28;20430;-69
2021/07/20 05:03:54;;;;;;;1.85;1.35;;;;;;;;;;5071207;28;20043;-69
2021/07/20 05:06:21;;;;;;;3.17;1.40;;;;;;;;;;5071076;28;20536;-69
2021/07/20 05:08:48;;;;;;;2.20;1.15;;;;;;;;;;5071628;28;20111;-69
2021/07/20 05:11:14;;;;;;;1.70;1.20;;;;;;;;;;5053222;28;20037;-69
2021/07/20 05:13:41;;;;;;;2.03;1.20;;;;;;;;;;5062694;28;20348;-69
2021/07/20 05:16:07;;;;;;;2.95;1.20;;;;;;;;;;5068390;28;20537;-69
2021/07/20 05:18:35;;;;;;;1.42;1.10;;;;;;;;;;5058517;28;20028;-69
2021/07/20 05:21:01;;;;;;;2.08;1.20;;;;;;;;;;5054004;28;20490;-69
2021/07/20 05:23:32;;;;;;;1.80;0.88;;;;;;;;;;5067078;28;20028;-69
2021/07/20 05:26:00;;;;;;;1.88;1.00;;;;;;;;;;5052991;28;20074;-70
2021/07/20 05:28:29;;;;;;;1.30;0.90;;;;;;;;;;5057973;28;20025;-69
2021/07/20 05:30:56;;;;;;;2.00;1.05;;;;;;;;;;5057377;28;20037;-69
2021/07/20 05:33:22;;;;;;;1.48;0.80;;;;;;;;;;5071639;28;20032;-69
2021/07/20 05:36:03;;;;;;;4.13;1.00;;;;;;;;;;5069739;28;20029;-69
2021/07/20 05:38:29;;;;;;;2.15;0.90;;;;;;;;;;5071368;28;20028;-70
2021/07/20 05:40:57;;;;;;;2.15;0.98;;;;;;;;;;5070894;28;20476;-69
2021/07/20 05:43:28;;;;;;;0.98;0.82;;;;;;;;;;5071250;28;20468;-69
2021/07/20 05:45:57;;;;;;;2.30;1.02;;;;;;;;;;5064576;28;20029;-69
2021/07/20 05:48:24;;;;;;;1.35;0.90;;;;;;;;;;5060426;28;20464;-69
2021/07/20 05:50:54;;;;;;;1.73;0.95;;;;;;;;;;5052751;28;20037;-69
2021/07/20 05:53:24;;;;;;;2.42;0.95;;;;;;;;;;5067762;28;20020;-69
2021/07/20 05:55:53;;;;;;;2.08;0.90;;;;;;;;;;5074259;28;20535;-69
2021/07/20 05:58:20;;;;;;;2.10;0.85;;;;;;;;;;5074606;28;20028;-69
2021/07/20 06:00:48;;;;;;;0.98;0.70;;;;;;;;;;5067566;28;20024;-69
2021/07/20 06:03:19;;;;;;;1.23;0.80;;;;;;;;;;5059958;28;20029;-69
2021/07/20 06:05:48;;;;;;;1.27;0.80;;;;;;;;;;5067140;28;20028;-68
2021/07/20 06:08:18;;;;;;;0.90;0.60;;;;;;;;;;5057806;28;20032;-70
2021/07/20 06:10:56;;;;;;;1.27;0.80;;;;;;;;;;5074428;28;20070;-69
2021/07/20 06:13:25;;;;;;;1.55;0.60;;;;;;;;;;5068242;28;20356;-70
2021/07/20 06:15:52;;;;;;;0.55;0.50;;;;;;;;;;5073478;28;20024;-69
2021/07/20 06:18:18;;;;;;;0.82;0.70;;;;;;;;;;5075255;28;20102;-69
2021/07/20 06:20:52;;;;;;;3.08;0.70;;;;;;;;;;5075134;28;20500;-70
2021/07/20 06:23:18;;;;;;;;;;;;;;;;;;5075557;28;20028;-69
2021/07/20 06:25:44;;;;;;;2.42;0.75;;;;;;;;;;5072818;28;20383;-69
2021/07/20 06:28:11;;;;;;;0.80;0.65;;;;;;;;;;5065033;28;20029;-69
2021/07/20 06:30:39;;;;;;;4.65;0.90;;;;;;;;;;5069932;28;20464;-69
2021/07/20 06:33:16;;;;;;;0.50;0.50;;;;;;;;;;5068633;28;20026;-70
2021/07/20 06:35:49;;;;;;;0.90;0.80;;;;;;;;;;5058616;28;20140;-70
2021/07/20 06:38:22;;;;;;;2.40;0.80;;;;;;;;;;5065199;28;20024;-71
2021/07/20 06:40:53;;;;;;;1.02;0.80;;;;;;;;;;5073415;28;20044;-70
2021/07/20 06:43:20;;;;;;;2.47;0.98;;;;;;;;;;5070812;28;20035;-70
2021/07/20 06:45:48;;;;;;;3.05;0.95;;;;;;;;;;5074297;28;20456;-71
2021/07/20 06:48:17;;;;;;;1.10;0.90;;;;;;;;;;5072709;28;20084;-70
2021/07/20 06:50:43;;;;;;;3.80;1.10;;;;;;;;;;5067186;28;20467;-70
2021/07/20 06:53:14;;;;;;;2.00;1.13;;;;;;;;;;5059763;28;20035;-69
2021/07/20 06:55:56;;;;;;;2.33;0.90;;;;;;;;;;5068436;28;20031;-70
2021/07/20 06:58:31;;;;;;;3.20;1.23;;;;;;;;;;5063411;28;20024;-71
2021/07/20 07:01:02;;;;;;;1.55;1.13;;;;;;;;;;5059995;28;20029;-70
2021/07/20 07:03:45;;;;;;;3.55;1.27;;;;;;;;;;5058851;28;20529;-70
2021/07/20 07:06:16;;;;;;;2.22;1.02;;;;;;;;;;5054445;28;20430;-72
2021/07/20 07:08:45;;;;;;;1.92;0.98;;;;;;;;;;5059009;28;20500;-70
2021/07/20 07:11:11;;;;;;;1.77;1.00;;;;;;;;;;5057926;28;20395;-70
2021/07/20 07:13:40;;;;;;;3.45;0.77;;;;;;;;;;5058688;28;20029;-71
2021/07/20 07:16:06;;;;;;;1.70;1.00;;;;;;;;;;5065973;28;20028;-69
2021/07/20 07:18:33;;;;;;;1.17;0.75;;;;;;;;;;5064087;28;20429;-69
2021/07/20 07:21:01;;;;;;;2.22;0.90;;;;;;;;;;5057945;28;20029;-71
2021/07/20 07:23:48;;;;;;;0.70;0.60;;;;;;;;;;5055210;28;20353;-70
2021/07/20 07:26:20;;;;;;;0.75;0.63;;;;;;;;;;5071305;28;20103;-71
2021/07/20 07:28:52;;;;;;;1.05;0.70;;;;;;;;;;5066762;28;20468;-70
2021/07/20 07:31:18;;;;;;;1.58;0.70;;;;;;;;;;5062330;28;20028;-69
2021/07/20 07:33:51;;;;;;;1.25;0.80;;;;;;;;;;5069280;28;20032;-71
2021/07/20 07:36:20;;;;;;;1.17;0.90;;;;;;;;;;5071542;28;20028;-69
2021/07/20 07:38:47;;;;;;;1.95;0.68;;;;;;;;;;5082751;28;20070;-69
2021/07/20 07:41:16;;;;;;;1.15;0.60;;;;;;;;;;5092698;28;20028;-70
2021/07/20 07:43:46;;;;;;;3.70;0.70;;;;;;;;;;5087265;28;20476;-69
2021/07/20 07:46:13;;;;;;;0.90;0.70;;;;;;;;;;5053191;28;20025;-69
2021/07/20 07:48:41;;;;;;;1.70;0.70;;;;;;;;;;5053665;28;20148;-69
2021/07/20 07:51:11;;;;;;;2.83;0.90;;;;;;;;;;5053156;28;20033;-68
2021/07/20 07:53:39;;;;;;;0.95;0.85;;;;;;;;;;5058742;28;20021;-69
2021/07/20 07:56:05;;;;;;;1.65;0.70;;;;;;;;;;5072230;28;20024;-69
2021/07/20 07:58:39;;;;;;;2.13;0.85;;;;;;;;;;5071886;28;20024;-68
2021/07/20 08:01:12;;;;;;;4.40;0.88;;;;;;;;;;5059436;28;20021;-69
2021/07/20 08:03:45;;;;;;;1.80;0.70;;;;;;;;;;5073367;28;20468;-70
2021/07/20 08:06:14;;;;;;;1.13;0.65;;;;;;;;;;5072786;28;20545;-69
2021/07/20 08:08:51;;;;;;;1.75;0.80;;;;;;;;;;5070821;28;20032;-70
2021/07/20 08:11:22;;;;;;;1.83;0.90;;;;;;;;;;5067747;28;20523;-69
2021/07/20 08:13:56;;;;;;;0.95;0.80;;;;;;;;;;5053502;28;20032;-72
2021/07/20 08:16:25;;;;;;;1.02;0.93;;;;;;;;;;5081611;28;20028;-71
2021/07/20 08:18:51;;;;;;;1.00;0.70;;;;;;;;;;5063550;28;20100;-70
2021/07/20 08:21:20;;;;;;;1.67;0.88;;;;;;;;;;5060281;28;20438;-71
2021/07/20 08:23:51;;;;;;;1.17;0.75;;;;;;;;;;5072103;28;20435;-71
2021/07/20 08:26:20;;;;;;;3.83;0.60;;;;;;;;;;5070606;28;20029;-71
2021/07/20 08:29:06;;;;;;;1.05;0.73;;;;;;;;;;5053830;28;20033;-71
2021/07/20 08:31:56;;;;;;;2.00;0.60;;;;;;;;;;5052488;28;20036;-69
2021/07/20 08:34:24;;;;;;;0.70;0.63;;;;;;;;;;5069393;28;20393;-70
2021/07/20 08:36:56;;;;;;;1.20;0.70;;;;;;;;;;5058092;28;20027;-70
2021/07/20 08:39:34;;;;;;;0.70;0.63;;;;;;;;;;5066081;28;20099;-70
2021/07/20 08:42:39;;;;;;;1.13;0.80;;;;;;;;;;5059894;28;20028;-72
2021/07/20 08:45:22;;;;;;;2.22;0.70;;;;;;;;;;5029778;28;20047;-69
2021/07/20 08:48:32;;;;;;;0.77;0.70;;;;;;;;;;5066905;28;20024;-70
2021/07/20 08:51:14;;;;;;;0.55;0.50;;;;;;;;;;5012032;28;20050;-69
2021/07/20 08:53:47;;;;;;;2.50;0.93;;;;;;;;;;5049352;28;20044;-70
2021/07/20 08:56:18;;;;;;;0.80;0.60;;;;;;;;;;5025079;28;20048;-70
2021/07/20 08:58:59;;;;;;;1.10;0.63;;;;;;;;;;5045849;28;20037;-70
2021/07/20 09:01:35;;;;;;;1.48;0.60;;;;;;;;;;5054156;28;20456;-70
2021/07/20 09:04:19;;;;;;;3.63;1.58;;;;;;;;;;5059858;28;20068;-68
2021/07/20 09:07:00;;;;;;;2.15;0.75;;;;;;;;;;5055928;28;20464;-70
2021/07/20 09:09:36;;;;;;;0.55;0.55;;;;;;;;;;5047404;28;20484;-69
2021/07/20 09:12:12;;;;;;;1.35;0.68;;;;;;;;;;5039090;28;20037;-68
2021/07/20 09:15:05;;;;;;;1.83;0.70;;;;;;;;;;5027572;28;20461;-69
2021/07/20 09:17:48;;;;;;;0.70;0.60;;;;;;;;;;5035700;28;20078;-69
2021/07/20 09:20:31;;;;;;;2.03;0.55;;;;;;;;;;5037246;28;20033;-69
2021/07/20 09:23:08;;;;;;;2.03;0.80;;;;;;;;;;5045572;28;20060;-69
2021/07/20 09:25:54;;;;;;;0.70;0.60;;;;;;;;;;5049336;28;20510;-71
2021/07/20 09:28:51;;;;;;;1.25;0.73;;;;;;;;;;5049931;28;20025;-71
2021/07/20 09:31:27;;;;;;;1.05;0.75;;;;;;;;;;5030477;28;20124;-69
2021/07/20 09:34:15;;;;;;;1.70;0.70;;;;;;;;;;5046943;28;20036;-69
2021/07/20 09:36:47;;;;;;;1.65;0.80;;;;;;;;;;5041435;28;20033;-69
2021/07/20 09:39:50;;;;;;;2.67;0.70;;;;;;;;;;5061568;28;20079;-70
2021/07/20 09:42:44;;;;;;;2.60;0.90;;;;;;;;;;5042919;28;20116;-68
2021/07/20 09:45:21;;;;;;;1.85;1.02;;;;;;;;;;5047549;28;20405;-69
2021/07/20 09:48:02;;;;;;;1.70;1.00;;;;;;;;;;5032302;28;20036;-68
2021/07/20 09:50:33;;;;;;;2.35;1.20;;;;;;;;;;5047616;28;20416;-70
2021/07/20 09:53:09;;;;;;;1.77;1.05;;;;;;;;;;5025197;28;20029;-68
2021/07/20 09:55:51;;;;;;;1.27;0.82;;;;;;;;;;5053040;28;20033;-69
2021/07/20 09:58:48;;;;;;;1.75;1.02;;;;;;;;;;5042522;28;20036;-71
2021/07/20 10:01:29;;;;;;;1.92;0.95;;;;;;;;;;5041095;28;20026;-70
2021/07/20 10:04:15;;;;;;;2.50;1.10;;;;;;;;;;5035866;28;20036;-68
2021/07/20 10:06:52;;;;;;;2.75;0.93;;;;;;;;;;5046417;28;20123;-69
2021/07/20 10:09:25;;;;;;;3.20;0.80;;;;;;;;;;5054113;28;20024;-70
2021/07/20 10:11:53;;;;;;;1.25;1.00;;;;;;;;;;5037705;28;20043;-69
2021/07/20 10:14:28;;;;;;;3.83;0.93;;;;;;;;;;5047725;28;20484;-69
2021/07/20 10:17:13;;;;;;;2.28;1.05;;;;;;;;;;5051921;28;20049;-69
2021/07/20 10:19:47;;;;;;;1.73;0.90;;;;;;;;;;5047347;28;20041;-69
2021/07/20 10:22:24;;;;;;;3.15;1.00;;;;;;;;;;5047710;28;20045;-68
2021/07/20 10:24:59;;;;;;;4.28;1.20;;;;;;;;;;5036028;28;20034;-69
2021/07/20 10:27:45;;;;;;;2.92;1.10;;;;;;;;;;5047355;28;20025;-70
2021/07/20 10:30:15;;;;;;;2.63;1.13;;;;;;;;;;5046107;28;20021;-71
2021/07/20 10:32:59;;;;;;;2.67;0.98;;;;;;;;;;5027497;28;20055;-69
2021/07/20 10:35:35;;;;;;;3.17;1.23;;;;;;;;;;5029824;28;20063;-68
2021/07/20 10:38:05;;;;;;;2.67;1.10;;;;;;;;;;5050444;28;20073;-69
2021/07/20 10:40:33;;;;;;;3.67;1.10;;;;;;;;;;5033456;28;20044;-69
2021/07/20 10:43:07;;;;;;;1.90;0.98;;;;;;;;;;5038962;28;20051;-68
2021/07/20 10:45:35;;;;;;;2.40;1.02;;;;;;;;;;5044710;28;20110;-68
2021/07/20 10:48:06;;;;;;;3.72;1.27;;;;;;;;;;5046828;28;20048;-71
2021/07/20 10:50:55;;;;;;;5.72;1.15;;;;;;;;;;5046524;28;20069;-71
2021/07/20 10:53:48;;;;;;;1.08;0.85;;;;;;;;;;5048888;28;20050;-69
2021/07/20 10:56:33;;;;;;;6.43;1.60;;;;;;;;;;5053569;28;20064;-70
2021/07/20 10:59:17;;;;;;;2.92;1.10;;;;;;;;;;5037537;28;20025;-69
2021/07/20 11:02:00;;;;;;;2.92;1.10;;;;;;;;;;5034773;28;20034;-69
2021/07/20 11:04:41;;;;;;;3.38;1.20;;;;;;;;;;5041951;28;20032;-69
2021/07/20 11:07:08;;;;;;;2.03;1.23;;;;;;;;;;5041457;28;20032;-70
2021/07/20 11:09:38;;;;;;;3.67;1.00;;;;;;;;;;5051151;28;20053;-69
2021/07/20 11:12:06;;;;;;;3.03;1.10;;;;;;;;;;5050946;28;20460;-70
2021/07/20 11:14:39;;;;;;;1.40;1.08;;;;;;;;;;5042171;28;20052;-70
2021/07/20 11:17:06;;;;;;;1.83;1.10;;;;;;;;;;5037658;28;20429;-71
2021/07/20 11:19:33;;;;;;;2.28;1.05;;;;;;;;;;5032457;28;20619;-71
2021/07/20 11:21:59;;;;;;;2.08;1.00;;;;;;;;;;5033670;28;20422;-70
2021/07/20 11:24:26;;;;;;;2.42;1.00;;;;;;;;;;5033145;28;20032;-69
2021/07/20 11:26:52;;;;;;;1.92;1.10;;;;;;;;;;5033135;28;20044;-71
2021/07/20 11:29:19;;;;;;;3.75;1.30;;;;;;;;;;5032723;28;20627;-70
2021/07/20 11:31:51;;;;;;;2.65;1.30;;;;;;;;;;5033293;28;20040;-69
2021/07/20 11:34:28;;;;;;;3.22;1.20;;;;;;;;;;5037182;28;20033;-71
2021/07/20 11:37:01;;;;;;;3.35;1.00;;;;;;;;;;5033313;28;20385;-69
2021/07/20 11:39:31;;;;;;;2.28;1.10;;;;;;;;;;5047189;28;20424;-70
2021/07/20 11:42:07;;;;;;;2.53;1.10;;;;;;;;;;5045482;28;20102;-71
2021/07/20 11:44:53;;;;;;;3.70;1.15;;;;;;;;;;5044774;28;20028;-71
2021/07/20 11:47:43;;;;;;;5.68;1.00;;;;;;;;;;5032421;28;20045;-70
2021/07/20 11:50:33;;;;;;;3.55;1.20;;;;;;;;;;5063303;28;20128;-71
2021/07/20 11:53:35;;;;;;;1.40;0.95;;;;;;;;;;5067908;28;20028;-70
2021/07/20 11:56:31;;;;;;;5.13;1.30;;;;;;;;;;5057601;28;20037;-70
2021/07/20 11:59:24;;;;;;;2.75;1.10;;;;;;;;;;5054334;28;20024;-70
2021/07/20 12:02:13;;;;;;;4.97;1.10;;;;;;;;;;5061199;28;20477;-72
2021/07/20 12:04:45;;;;;;;3.85;1.42;;;;;;;;;;5062540;28;20487;-72
2021/07/20 12:07:40;;;;;;;3.97;1.25;;;;;;;;;;5068464;28;20447;-72
2021/07/20 12:10:38;;;;;;;6.95;1.30;;;;;;;;;;5052859;28;20036;-73
2021/07/20 12:13:08;;;;;;;3.50;1.30;;;;;;;;;;5057121;28;20166;-71
2021/07/20 12:15:35;;;;;;;4.05;1.40;;;;;;;;;;5074308;28;20108;-72
2021/07/20 12:18:03;;;;;;;4.60;1.58;;;;;;;;;;5060622;28;20510;-73
2021/07/20 12:20:29;;;;;;;3.45;1.30;;;;;;;;;;5063497;28;20024;-72
2021/07/20 12:22:57;;;;;;;4.75;1.27;;;;;;;;;;5064180;28;20040;-70
2021/07/20 12:25:26;;;;;;;4.82;1.40;;;;;;;;;;5061971;28;20025;-69
2021/07/20 12:27:54;;;;;;;2.72;1.40;;;;;;;;;;5063299;28;20377;-70
2021/07/20 12:30:23;;;;;;;3.67;1.80;;;;;;;;;;5057825;28;20118;-72
2021/07/20 12:32:48;;;;;;;6.57;1.80;;;;;;;;;;5051666;28;20037;-72
2021/07/20 12:35:19;;;;;;;6.55;1.95;;;;;;;;;;5056145;28;20036;-70
2021/07/20 12:37:59;;;;;;;3.90;1.75;;;;;;;;;;5068183;28;20038;-69
2021/07/20 12:40:25;;;;;;;4.80;1.80;;;;;;;;;;5070064;28;20115;-69
2021/07/20 12:42:51;;;;;;;5.68;1.80;;;;;;;;;;5053405;28;20033;-70
2021/07/20 12:45:17;;;;;;;2.95;1.80;;;;;;;;;;5058901;28;20019;-68
2021/07/20 12:47:45;;;;;;;4.05;1.98;;;;;;;;;;5061472;28;20025;-68
2021/07/20 12:50:21;;;;;;;5.63;2.08;;;;;;;;;;5066091;28;20524;-70
2021/07/20 12:52:49;;;;;;;4.70;2.15;;;;;;;;;;5068449;28;20028;-71
2021/07/20 12:55:22;;;;;;;6.10;2.00;;;;;;;;;;5065420;28;20032;-70
2021/07/20 12:57:58;;;;;;;5.78;2.17;;;;;;;;;;5064302;28;20603;-70
2021/07/20 13:00:28;;;;;;;3.17;1.77;;;;;;;;;;5071019;28;20104;-70
2021/07/20 13:02:58;;;;;;;5.03;2.17;;;;;;;;;;5064446;28;20024;-73
2021/07/20 13:05:25;;;;;;;3.55;1.75;;;;;;;;;;5063884;28;20047;-70
2021/07/20 13:07:51;;;;;;;4.95;1.88;;;;;;;;;;5073857;28;20028;-72
2021/07/20 13:10:22;;;;;;;5.57;1.80;;;;;;;;;;5068393;28;20035;-71
2021/07/20 13:12:47;;;;;;;4.95;2.70;;;;;;;;;;5069266;28;20470;-70
2021/07/20 13:15:21;;;;;;;6.05;1.73;;;;;;;;;;5068539;28;20016;-70
2021/07/20 13:17:50;;;;;;;3.78;1.75;;;;;;;;;;5056260;28;20380;-70
2021/07/20 13:20:18;;;;;;;4.80;1.90;;;;;;;;;;5057361;28;20044;-70
2021/07/20 13:22:44;;;;;;;5.00;2.00;;;;;;;;;;5061009;28;20051;-70
2021/07/20 13:25:12;;;;;;;5.45;1.73;;;;;;;;;;5064648;28;20452;-70
2021/07/20 13:27:41;;;;;;;9.30;1.70;;;;;;;;;;5065329;28;20706;-71
2021/07/20 13:30:09;;;;;;;3.78;1.65;;;;;;;;;;5062282;28;20021;-70
2021/07/20 13:32:36;;;;;;;4.63;1.80;;;;;;;;;;5071809;28;20020;-69
2021/07/20 13:35:04;;;;;;;4.63;1.88;;;;;;;;;;5075733;28;20028;-68
2021/07/20 13:37:31;;;;;;;4.28;1.60;;;;;;;;;;5072903;28;20387;-71
2021/07/20 13:39:58;;;;;;;3.72;1.70;;;;;;;;;;5076075;28;20079;-71
2021/07/20 13:42:24;;;;;;;3.83;1.90;;;;;;;;;;5063865;28;20021;-71
2021/07/20 13:44:51;;;;;;;3.47;1.70;;;;;;;;;;5064917;28;20097;-72
2021/07/20 13:47:19;;;;;;;4.25;1.60;;;;;;;;;;5075608;28;20027;-68
2021/07/20 13:49:48;;;;;;;4.40;1.90;;;;;;;;;;5068676;28;20450;-69
2021/07/20 13:52:16;;;;;;;4.03;1.75;;;;;;;;;;5060641;28;20016;-69
2021/07/20 13:54:46;;;;;;;5.30;1.80;;;;;;;;;;5057292;28;20119;-71
2021/07/20 13:57:13;;;;;;;5.53;1.70;;;;;;;;;;5062958;28;20472;-71
2021/07/20 13:59:43;;;;;;;5.20;1.92;;;;;;;;;;5066957;28;20021;-70
2021/07/20 14:02:16;;;;;;;4.32;1.70;;;;;;;;;;5074083;28;20035;-71
2021/07/20 14:04:44;;;;;;;3.88;1.65;;;;;;;;;;5064259;28;20155;-71
2021/07/20 14:07:11;;;;;;;4.18;1.63;;;;;;;;;;5057102;28;20029;-69
2021/07/20 14:09:38;;;;;;;5.07;1.90;;;;;;;;;;5071848;28;20020;-70
2021/07/20 14:12:06;;;;;;;4.07;1.70;;;;;;;;;;5062192;28;20029;-70
2021/07/20 14:14:32;;;;;;;3.97;1.80;;;;;;;;;;5064858;28;20450;-70
2021/07/20 14:16:59;;;;;;;3.33;1.70;;;;;;;;;;5062855;28;20025;-69
2021/07/20 14:19:26;;;;;;;6.00;1.80;;;;;;;;;;5057341;28;20067;-68
2021/07/20 14:21:52;;;;;;;4.82;1.90;;;;;;;;;;5055636;28;20077;-70
2021/07/20 14:24:19;;;;;;;5.45;1.95;;;;;;;;;;5069426;28;20024;-70
2021/07/20 14:26:51;;;;;;;7.15;2.10;;;;;;;;;;5073115;28;20028;-70
2021/07/20 14:29:23;;;;;;;7.90;2.00;;;;;;;;;;5073232;28;20147;-69
2021/07/20 14:31:49;;;;;;;3.10;1.50;;;;;;;;;;5071051;28;20021;-69
2021/07/20 14:34:18;;;;;;;4.05;1.90;;;;;;;;;;5058787;28;20043;-69
2021/07/20 14:36:49;;;;;;;4.32;2.00;;;;;;;;;;5074575;28;20036;-70
2021/07/20 14:39:26;;;;;;;2.83;1.52;;;;;;;;;;5058714;28;20108;-69
2021/07/20 14:42:14;;;;;;;4.85;2.03;;;;;;;;;;5054660;28;20033;-71
2021/07/20 14:44:52;;;;;;;3.53;1.88;;;;;;;;;;5054675;28;20021;-69
2021/07/20 14:47:32;;;;;;;3.70;1.95;;;;;;;;;;5053012;28;20029;-70
2021/07/20 14:50:08;;;;;;;4.70;1.80;;;;;;;;;;5054172;28;20081;-70
2021/07/20 14:52:46;;;;;;;4.35;1.70;;;;;;;;;;5053906;28;20025;-70
2021/07/20 14:55:21;;;;;;;3.67;1.90;;;;;;;;;;5053933;28;20067;-70
2021/07/20 14:58:02;;;;;;;4.18;1.90;;;;;;;;;;5053767;28;20044;-69
2021/07/20 15:00:52;;;;;;;4.53;1.95;;;;;;;;;;5054039;28;20021;-70
2021/07/20 15:03:28;;;;;;;5.28;1.80;;;;;;;;;;5053967;28;20354;-69
2021/07/20 15:05:54;;;;;;;6.22;1.90;;;;;;;;;;5053811;28;20075;-69
2021/07/20 15:08:24;;;;;;;5.60;2.10;;;;;;;;;;5053665;28;20481;-70
2021/07/20 15:10:54;;;;;;;5.13;1.90;;;;;;;;;;5054026;28;20044;-70
2021/07/20 15:13:21;;;;;;;4.95;1.90;;;;;;;;;;5053566;28;20029;-70